createdAt,value
2022-10-14T00:01:26.993Z,10.48
2022-10-14T00:03:56.101Z,12.45
2022-10-14T00:06:26.284Z,10.55
2022-10-14T00:08:55.389Z,10.25
2022-10-14T00:11:28.512Z,8.65
2022-10-14T00:13:59.175Z,10.00
2022-10-14T00:16:30.256Z,10.18
2022-10-14T00:18:59.097Z,11.35
2022-10-14T00:21:28.433Z,13.45
2022-10-14T00:23:56.854Z,10.10
2022-10-14T00:26:28.397Z,12.27
2022-10-14T00:28:57.162Z,8.40
2022-10-14T00:31:28.024Z,9.93
2022-10-14T00:33:57.253Z,8.63
2022-10-14T00:36:26.604Z,13.40
2022-10-14T00:38:55.639Z,10.93
2022-10-14T00:41:28.519Z,11.52
2022-10-14T00:44:00.709Z,10.00
2022-10-14T00:46:31.036Z,11.77
2022-10-14T00:49:02.786Z,8.68
2022-10-14T00:51:31.398Z,11.73
2022-10-14T00:53:59.664Z,8.20
2022-10-14T00:56:30.697Z,12.98
2022-10-14T00:58:59.493Z,10.95
2022-10-14T01:01:27.774Z,10.27
2022-10-14T01:03:56.254Z,10.43
2022-10-14T01:06:41.246Z,14.35
2022-10-14T01:09:21.244Z,9.32
2022-10-14T01:12:27.660Z,11.75
2022-10-14T01:14:59.785Z,13.55
2022-10-14T01:17:40.041Z,12.25
2022-10-14T01:20:28.512Z,13.05
2022-10-14T01:23:08.129Z,10.13
2022-10-14T01:25:50.552Z,9.85
2022-10-14T01:28:28.693Z,13.93
2022-10-14T01:31:03.796Z,11.32
2022-10-14T01:33:38.009Z,11.93
2022-10-14T01:36:11.169Z,12.75
2022-10-14T01:38:43.662Z,10.88
2022-10-14T01:41:16.651Z,9.02
2022-10-14T01:43:47.401Z,10.18
2022-10-14T01:46:21.606Z,14.25
2022-10-14T01:48:56.452Z,13.95
2022-10-14T01:51:30.366Z,13.90
2022-10-14T01:54:03.233Z,15.60
2022-10-14T01:56:37.085Z,14.15
2022-10-14T01:59:11.667Z,13.75
2022-10-14T02:01:41.239Z,14.90
2022-10-14T02:04:15.882Z,14.48
2022-10-14T02:06:50.138Z,15.00
2022-10-14T02:09:25.893Z,15.90
2022-10-14T02:12:05.817Z,14.68
2022-10-14T02:14:43.629Z,14.87
2022-10-14T02:17:21.499Z,15.38
2022-10-14T02:19:53.651Z,17.45
2022-10-14T02:22:28.517Z,16.17
2022-10-14T02:25:19.149Z,14.68
2022-10-14T02:27:50.087Z,16.48
2022-10-14T02:30:19.356Z,17.25
2022-10-14T02:32:53.986Z,15.43
2022-10-14T02:35:25.862Z,12.27
2022-10-14T02:37:58.628Z,13.75
2022-10-14T02:40:32.362Z,14.70
2022-10-14T02:43:01.163Z,14.27
2022-10-14T02:45:29.416Z,17.65
2022-10-14T02:47:59.025Z,17.33
2022-10-14T02:50:27.434Z,16.52
2022-10-14T02:52:55.508Z,13.13
2022-10-14T02:55:23.866Z,12.90
2022-10-14T02:57:52.358Z,16.23
2022-10-14T03:00:21.468Z,15.68
2022-10-14T03:02:50.386Z,20.67
2022-10-14T03:05:20.590Z,16.30
2022-10-14T03:07:48.781Z,15.35
2022-10-14T03:10:18.575Z,15.68
2022-10-14T03:12:48.605Z,17.55
2022-10-14T03:15:18.718Z,16.27
2022-10-14T03:17:47.730Z,17.33
2022-10-14T03:20:20.297Z,16.52
2022-10-14T03:22:48.804Z,17.65
2022-10-14T03:25:17.585Z,15.88
2022-10-14T03:27:51.182Z,15.90
2022-10-14T03:30:22.540Z,17.83
2022-10-14T03:32:51.443Z,18.98
2022-10-14T03:35:22.699Z,16.90
2022-10-14T03:37:53.233Z,14.52
2022-10-14T03:40:22.540Z,13.38
2022-10-14T03:42:51.627Z,14.70
2022-10-14T03:45:22.046Z,14.95
2022-10-14T03:47:50.443Z,15.32
2022-10-14T03:50:20.076Z,14.10
2022-10-14T03:52:53.368Z,12.23
2022-10-14T03:55:25.017Z,12.18
2022-10-14T03:57:53.390Z,12.95
2022-10-14T04:00:21.915Z,16.83
2022-10-14T04:02:50.877Z,14.52
2022-10-14T04:05:19.569Z,15.18
2022-10-14T04:07:49.900Z,14.85
2022-10-14T04:10:19.201Z,16.55
2022-10-14T04:12:48.496Z,14.27
2022-10-14T04:15:17.493Z,17.10
2022-10-14T04:17:47.935Z,17.12
2022-10-14T04:20:17.036Z,15.05
2022-10-14T04:22:45.831Z,14.75
2022-10-14T04:25:17.372Z,14.52
2022-10-14T04:27:50.374Z,14.93
2022-10-14T04:30:19.473Z,15.43
2022-10-14T04:32:49.180Z,10.95
2022-10-14T04:35:18.174Z,17.95
2022-10-14T04:37:47.379Z,14.50
2022-10-14T04:40:20.514Z,17.95
2022-10-14T04:42:49.184Z,13.35
2022-10-14T04:45:17.951Z,14.48
2022-10-14T04:47:48.774Z,15.48
2022-10-14T04:50:18.735Z,12.57
2022-10-14T04:53:01.932Z,16.83
2022-10-14T04:55:31.761Z,13.90
2022-10-14T04:58:00.566Z,15.48
2022-10-14T05:00:32.504Z,16.17
2022-10-14T05:03:01.016Z,17.50
2022-10-14T05:05:29.699Z,13.13
2022-10-14T05:07:58.800Z,15.88
2022-10-14T05:10:28.922Z,15.85
2022-10-14T05:12:58.786Z,16.08
2022-10-14T05:15:28.441Z,15.05
2022-10-14T05:17:57.335Z,16.37
2022-10-14T05:20:27.425Z,15.55
2022-10-14T05:22:56.664Z,14.43
2022-10-14T05:25:24.854Z,15.50
2022-10-14T05:27:53.773Z,13.50
2022-10-14T05:30:23.863Z,18.92
2022-10-14T05:32:52.784Z,18.95
2022-10-14T05:35:39.809Z,18.10
2022-10-14T05:38:09.582Z,16.02
2022-10-14T05:40:38.285Z,20.17
2022-10-14T05:43:06.552Z,17.25
2022-10-14T05:45:38.117Z,22.50
2022-10-14T05:48:07.111Z,15.38
2022-10-14T05:50:36.229Z,16.12
2022-10-14T05:53:05.206Z,17.58
2022-10-14T05:55:34.309Z,19.00
2022-10-14T05:58:02.918Z,17.67
2022-10-14T06:00:32.099Z,17.05
2022-10-14T06:03:03.173Z,16.83
2022-10-14T06:05:31.743Z,18.33
2022-10-14T06:08:00.029Z,16.40
2022-10-14T06:10:29.174Z,17.12
2022-10-14T06:12:59.472Z,15.52
2022-10-14T06:15:29.814Z,17.98
2022-10-14T06:17:58.365Z,17.62
2022-10-14T06:20:29.551Z,21.37
2022-10-14T06:22:59.959Z,15.50
2022-10-14T06:25:28.220Z,19.37
2022-10-14T06:27:56.808Z,17.87
2022-10-14T06:30:25.709Z,19.25
2022-10-14T06:32:54.247Z,16.20
2022-10-14T06:35:22.881Z,14.82
2022-10-14T06:37:52.775Z,15.85
2022-10-14T06:40:21.601Z,15.80
2022-10-14T06:42:49.989Z,13.45
2022-10-14T06:45:18.810Z,13.23
2022-10-14T06:47:47.259Z,12.32
2022-10-14T06:50:16.264Z,14.45
2022-10-14T06:52:46.215Z,12.13
2022-10-14T06:55:16.822Z,16.95
2022-10-14T06:57:45.613Z,13.98
2022-10-14T07:00:14.519Z,12.52
2022-10-14T07:02:46.277Z,15.13
2022-10-14T07:05:24.496Z,12.20
2022-10-14T07:07:52.716Z,11.27
2022-10-14T07:10:24.654Z,16.87
2022-10-14T07:12:55.678Z,12.57
2022-10-14T07:15:24.477Z,12.77
2022-10-14T07:17:52.868Z,14.93
2022-10-14T07:20:21.229Z,14.55
2022-10-14T07:22:49.829Z,12.60
2022-10-14T07:25:18.612Z,11.95
2022-10-14T07:27:48.427Z,10.95
2022-10-14T07:30:17.655Z,12.73
2022-10-14T07:32:46.340Z,10.25
2022-10-14T07:35:15.735Z,10.85
2022-10-14T07:37:44.416Z,10.35
2022-10-14T07:40:13.444Z,11.32
2022-10-14T07:42:41.857Z,12.48
2022-10-14T07:45:16.151Z,11.70
2022-10-14T07:47:49.860Z,12.80
2022-10-14T07:50:19.641Z,12.02
2022-10-14T07:52:48.140Z,14.93
2022-10-14T07:55:16.456Z,13.23
2022-10-14T07:57:44.908Z,14.38
2022-10-14T08:00:14.833Z,15.70
2022-10-14T08:02:43.310Z,9.50
2022-10-14T08:05:38.258Z,12.40
2022-10-14T08:08:00.373Z,13.52
2022-10-14T08:10:28.615Z,12.25
2022-10-14T08:12:57.914Z,11.80
2022-10-14T08:15:29.893Z,10.40
2022-10-14T08:17:58.315Z,10.63
2022-10-14T08:20:27.166Z,9.40
2022-10-14T08:22:56.193Z,8.00
2022-10-14T08:25:24.362Z,12.48
2022-10-14T08:27:54.298Z,11.70
2022-10-14T08:30:23.065Z,10.00
2022-10-14T08:32:58.105Z,6.68
2022-10-14T08:35:27.186Z,6.40
2022-10-14T08:38:01.624Z,7.10
2022-10-14T08:40:32.155Z,7.45
2022-10-14T08:43:05.468Z,7.53
2022-10-14T08:45:36.706Z,5.97
2022-10-14T08:48:14.395Z,6.95
2022-10-14T08:50:49.010Z,5.45
2022-10-14T08:53:21.556Z,7.78
2022-10-14T08:55:54.785Z,5.93
2022-10-14T09:00:56.075Z,6.07
2022-10-14T09:03:32.941Z,7.57
2022-10-14T09:06:04.698Z,6.82
2022-10-14T09:08:38.507Z,6.40
2022-10-14T09:11:11.195Z,7.78
2022-10-14T09:13:43.665Z,6.57
2022-10-14T09:16:18.509Z,4.78
2022-10-14T09:18:54.606Z,4.40
2022-10-14T09:21:51.745Z,3.85
2022-10-14T09:24:23.253Z,3.95
2022-10-14T09:29:27.591Z,5.82
2022-10-14T09:31:59.995Z,4.22
2022-10-14T09:34:35.608Z,6.10
2022-10-14T09:37:29.384Z,5.82
2022-10-14T09:40:02.472Z,7.15
2022-10-14T09:42:43.343Z,5.20
2022-10-14T09:45:13.675Z,4.47
2022-10-14T09:47:50.853Z,5.85
2022-10-14T09:50:27.424Z,5.60
2022-10-14T09:53:01.550Z,4.40
2022-10-14T09:55:30.742Z,4.85
2022-10-14T09:58:07.101Z,5.00
2022-10-14T10:00:37.787Z,4.07
2022-10-14T10:03:07.552Z,5.45
2022-10-14T10:05:37.670Z,4.82
2022-10-14T10:08:16.286Z,5.95
2022-10-14T10:11:03.556Z,5.25
2022-10-14T10:13:40.486Z,4.78
2022-10-14T10:16:19.637Z,3.70
2022-10-14T10:18:48.509Z,3.83
2022-10-14T10:21:21.114Z,2.83
2022-10-14T10:23:58.576Z,5.85
2022-10-14T10:26:29.524Z,3.37
2022-10-14T10:28:59.279Z,3.50
2022-10-14T10:31:47.168Z,2.78
2022-10-14T10:34:45.138Z,4.87
2022-10-14T10:37:26.171Z,3.40
2022-10-14T10:40:20.267Z,2.45
2022-10-14T10:42:59.908Z,2.40
2022-10-14T10:45:43.153Z,2.47
2022-10-14T10:48:20.622Z,2.67
2022-10-14T10:50:57.523Z,1.52
2022-10-14T10:53:55.463Z,2.17
2022-10-14T10:56:33.625Z,1.83
2022-10-14T10:59:40.021Z,1.87
2022-10-14T11:02:47.986Z,1.17
2022-10-14T11:05:23.589Z,2.00
2022-10-14T11:08:15.171Z,1.45
2022-10-14T11:11:12.628Z,1.42
2022-10-14T11:13:52.294Z,1.92
2022-10-14T11:16:29.599Z,1.62
2022-10-14T11:19:05.613Z,1.08
2022-10-14T11:21:44.131Z,1.67
2022-10-14T11:24:28.170Z,2.05
2022-10-14T11:27:06.347Z,1.23
2022-10-14T11:29:57.990Z,2.28
2022-10-14T11:32:37.741Z,1.40
2022-10-14T11:35:21.736Z,1.60
2022-10-14T11:38:04.072Z,1.30
2022-10-14T11:40:39.350Z,1.00
2022-10-14T11:43:23.555Z,4.10
2022-10-14T11:45:57.699Z,0.93
2022-10-14T11:48:35.770Z,1.20
2022-10-14T11:51:12.041Z,0.85
2022-10-14T11:54:08.355Z,0.93
2022-10-14T11:56:45.866Z,0.73
2022-10-14T11:59:37.683Z,2.12
2022-10-14T12:02:20.757Z,1.50
2022-10-14T12:04:57.081Z,1.02
2022-10-14T12:07:33.117Z,0.57
2022-10-14T12:10:05.364Z,0.65
2022-10-14T12:12:38.275Z,2.92
2022-10-14T12:15:17.434Z,0.70
2022-10-14T12:17:52.031Z,1.33
2022-10-14T12:20:30.444Z,1.25
2022-10-14T12:23:00.537Z,0.85
2022-10-14T12:25:36.736Z,0.93
2022-10-14T12:28:05.489Z,1.20
2022-10-14T12:30:38.542Z,0.62
2022-10-14T12:33:09.120Z,0.57
2022-10-14T12:36:06.798Z,1.62
2022-10-14T12:38:36.263Z,0.70
2022-10-14T12:41:34.059Z,4.50
2022-10-14T12:44:04.189Z,1.23
2022-10-14T12:46:44.232Z,0.57
2022-10-14T12:49:19.590Z,2.22
2022-10-14T12:51:55.746Z,2.22
2022-10-14T12:54:25.725Z,1.35
2022-10-14T12:57:00.403Z,1.00
2022-10-14T12:59:32.065Z,1.33
2022-10-14T13:02:05.521Z,1.65
2022-10-14T13:04:35.161Z,2.10
2022-10-14T13:07:43.785Z,0.62
2022-10-14T13:10:52.539Z,1.23
2022-10-14T13:14:00.250Z,0.90
2022-10-14T13:16:58.208Z,0.82
2022-10-14T13:19:44.643Z,0.75
2022-10-14T13:22:41.736Z,0.65
2022-10-14T13:25:21.691Z,0.40
2022-10-14T13:28:04.657Z,0.77
2022-10-14T13:30:38.407Z,0.62
2022-10-14T13:33:17.247Z,1.12
2022-10-14T13:35:54.397Z,0.68
2022-10-14T13:38:24.867Z,0.50
2022-10-14T13:40:56.070Z,0.50
2022-10-14T13:43:28.755Z,1.37
2022-10-14T13:46:04.470Z,0.70
2022-10-14T13:48:36.079Z,1.35
2022-10-14T13:51:36.988Z,0.68
2022-10-14T13:54:18.373Z,0.77
2022-10-14T13:57:31.518Z,0.45
2022-10-14T14:00:37.252Z,0.50
2022-10-14T14:02:41.146Z,0.50
2022-10-14T14:05:16.896Z,1.00
2022-10-14T14:10:39.357Z,1.65
2022-10-14T14:13:15.282Z,1.10
2022-10-14T14:15:43.832Z,1.12
2022-10-14T14:18:38.187Z,0.40
2022-10-14T14:21:18.612Z,0.60
2022-10-14T14:23:52.725Z,0.60
2022-10-14T14:26:25.968Z,0.70
2022-10-14T14:28:55.204Z,2.37
2022-10-14T14:31:47.925Z,0.55
2022-10-14T14:34:18.769Z,1.00
2022-10-14T14:36:55.462Z,2.60
2022-10-14T14:39:33.070Z,0.93
2022-10-14T14:42:02.478Z,1.12
2022-10-14T14:44:34.335Z,0.75
2022-10-14T14:47:05.281Z,1.50
2022-10-14T14:49:38.167Z,1.05
2022-10-14T14:52:07.325Z,0.32
2022-10-14T14:54:45.578Z,0.40
2022-10-14T14:57:17.453Z,1.48
2022-10-14T14:59:52.989Z,0.93
2022-10-14T15:02:23.781Z,0.80
2022-10-14T15:05:02.755Z,2.00
2022-10-14T15:07:31.856Z,2.12
2022-10-14T15:10:03.570Z,2.45
2022-10-14T15:12:39.160Z,0.50
2022-10-14T15:15:26.787Z,0.43
2022-10-14T15:18:14.822Z,0.43
2022-10-14T15:20:43.979Z,0.70
2022-10-14T15:23:40.912Z,0.73
2022-10-14T15:26:31.242Z,0.50
2022-10-14T15:29:18.750Z,1.98
2022-10-14T15:31:49.457Z,0.95
2022-10-14T15:34:21.122Z,0.85
2022-10-14T15:36:54.211Z,1.02
2022-10-14T15:39:23.224Z,1.15
2022-10-14T15:41:52.682Z,2.12
2022-10-14T15:44:20.783Z,0.65
2022-10-14T15:47:07.220Z,0.45
2022-10-14T15:49:43.236Z,0.60
2022-10-14T15:52:15.533Z,2.45
2022-10-14T15:54:45.814Z,1.65
2022-10-14T15:57:17.293Z,0.80
2022-10-14T15:59:47.011Z,0.70
2022-10-14T16:02:19.934Z,1.33
2022-10-14T16:05:14.712Z,2.10
2022-10-14T16:07:37.201Z,1.10
2022-10-14T16:10:07.631Z,2.85
2022-10-14T16:12:37.262Z,1.48
2022-10-14T16:15:19.802Z,0.80
2022-10-14T16:17:50.374Z,4.20
2022-10-14T16:20:22.117Z,0.80
2022-10-14T16:22:50.452Z,1.20
2022-10-14T16:25:25.495Z,1.15
2022-10-14T16:27:55.861Z,1.45
2022-10-14T16:30:25.583Z,0.70
2022-10-14T16:32:53.921Z,1.08
2022-10-14T16:35:22.156Z,1.05
2022-10-14T16:37:50.425Z,2.05
2022-10-14T16:40:19.128Z,1.15
2022-10-14T16:42:47.562Z,1.25
2022-10-14T16:45:17.320Z,1.25
2022-10-14T16:47:45.814Z,1.60
2022-10-14T16:50:14.243Z,0.75
2022-10-14T16:53:03.528Z,1.10
2022-10-14T16:55:34.616Z,1.45
2022-10-14T16:58:02.853Z,3.17
2022-10-14T17:00:32.601Z,2.85
2022-10-14T17:03:02.151Z,1.58
2022-10-14T17:05:30.690Z,1.77
2022-10-14T17:07:58.844Z,4.85
2022-10-14T17:10:27.354Z,1.77
2022-10-14T17:12:55.487Z,1.95
2022-10-14T17:15:23.712Z,1.80
2022-10-14T17:17:55.019Z,1.52
2022-10-14T17:20:23.255Z,1.55
2022-10-14T17:22:52.095Z,2.30
2022-10-14T17:25:20.806Z,2.87
2022-10-14T17:27:49.365Z,1.60
2022-10-14T17:30:18.581Z,5.40
2022-10-14T17:32:47.087Z,4.47
2022-10-14T17:35:16.836Z,1.65
2022-10-14T17:37:47.982Z,2.15
2022-10-14T17:40:16.578Z,1.37
2022-10-14T17:42:45.111Z,1.40
2022-10-14T17:45:13.289Z,2.70
2022-10-14T17:47:41.574Z,2.50
2022-10-14T17:50:11.007Z,1.70
2022-10-14T17:52:40.583Z,2.62
2022-10-14T17:55:09.902Z,3.55
2022-10-14T17:57:38.380Z,2.20
2022-10-14T18:00:07.501Z,1.75
2022-10-14T18:02:39.939Z,2.42
2022-10-14T18:05:09.180Z,3.37
2022-10-14T18:07:38.297Z,1.80
2022-10-14T18:10:09.504Z,2.85
2022-10-14T18:12:39.255Z,2.70
2022-10-14T18:15:08.611Z,2.72
2022-10-14T18:17:37.249Z,3.53
2022-10-14T18:20:06.867Z,2.35
2022-10-14T18:22:35.457Z,2.20
2022-10-14T18:25:05.131Z,2.58
2022-10-14T18:27:35.096Z,1.95
2022-10-14T18:30:03.265Z,2.17
2022-10-14T18:32:31.424Z,5.35
2022-10-14T18:34:59.957Z,3.67
2022-10-14T18:37:28.097Z,2.62
2022-10-14T18:39:56.297Z,3.22
2022-10-14T18:42:25.179Z,2.37
2022-10-14T18:44:55.021Z,4.75
2022-10-14T18:47:23.194Z,2.25
2022-10-14T18:49:51.710Z,3.90
2022-10-14T18:52:21.078Z,2.28
2022-10-14T18:54:49.713Z,3.15
2022-10-14T18:57:18.664Z,4.07
2022-10-14T18:59:47.349Z,3.00
2022-10-14T19:02:17.078Z,2.45
2022-10-14T19:04:45.658Z,2.53
2022-10-14T19:07:13.766Z,2.67
2022-10-14T19:09:42.294Z,1.62
2022-10-14T19:12:24.921Z,7.50
2022-10-14T19:14:53.484Z,2.37
2022-10-14T19:17:23.230Z,4.35
2022-10-14T19:19:51.350Z,3.17
2022-10-14T19:22:19.462Z,3.30
2022-10-14T19:24:47.929Z,3.08
2022-10-14T19:27:16.157Z,6.45
2022-10-14T19:29:44.301Z,3.15
2022-10-14T19:32:12.670Z,5.40
2022-10-14T19:34:46.970Z,3.33
2022-10-14T19:37:15.866Z,4.45
2022-10-14T19:39:43.926Z,3.10
2022-10-14T19:42:12.216Z,4.65
2022-10-14T19:44:40.936Z,2.33
2022-10-14T19:47:09.059Z,3.90
2022-10-14T19:49:37.444Z,6.87
2022-10-14T19:52:07.362Z,6.43
2022-10-14T19:54:35.612Z,3.83
2022-10-14T19:57:04.003Z,3.03
2022-10-14T19:59:32.413Z,2.55
2022-10-14T20:02:00.586Z,3.37
2022-10-14T20:04:29.095Z,4.25
2022-10-14T20:06:57.257Z,4.60
2022-10-14T20:09:26.665Z,2.42
2022-10-14T20:11:55.058Z,3.05
2022-10-14T20:14:23.943Z,4.07
2022-10-14T20:16:53.698Z,2.95
2022-10-14T20:19:24.499Z,4.18
2022-10-14T20:21:52.686Z,7.55
2022-10-14T20:24:20.759Z,5.45
2022-10-14T20:26:50.525Z,3.67
2022-10-14T20:29:18.902Z,6.25
2022-10-14T20:31:47.169Z,4.25
2022-10-14T20:34:15.624Z,4.30
2022-10-14T20:36:43.818Z,4.43
2022-10-14T20:39:12.290Z,9.73
2022-10-14T20:41:40.788Z,3.60
2022-10-14T20:44:10.384Z,4.35
2022-10-14T20:46:38.542Z,6.25
2022-10-14T20:49:07.233Z,5.25
2022-10-14T20:51:35.714Z,6.90
2022-10-14T20:54:07.220Z,7.82
2022-10-14T20:56:38.455Z,8.82
2022-10-14T20:59:08.971Z,6.30
2022-10-14T21:01:38.877Z,4.20
2022-10-14T21:04:08.722Z,7.97
2022-10-14T21:06:38.885Z,9.30
2022-10-14T21:09:08.022Z,5.40
2022-10-14T21:11:38.249Z,5.68
2022-10-14T21:14:06.443Z,5.82
2022-10-14T21:16:36.683Z,5.00
2022-10-14T21:19:08.139Z,7.75
2022-10-14T21:21:38.771Z,4.50
2022-10-14T21:24:07.457Z,7.05
2022-10-14T21:26:35.867Z,5.72
2022-10-14T21:29:04.945Z,8.55
2022-10-14T21:31:33.437Z,5.53
2022-10-14T21:34:06.068Z,7.45
2022-10-14T21:36:37.553Z,6.25
2022-10-14T21:39:09.730Z,7.10
2022-10-14T21:41:38.527Z,5.05
2022-10-14T21:44:07.834Z,7.35
2022-10-14T21:46:36.548Z,6.28
2022-10-14T21:49:05.235Z,6.07
2022-10-14T21:51:33.875Z,9.32
2022-10-14T21:54:04.126Z,5.47
2022-10-14T21:56:33.232Z,8.45
2022-10-14T21:59:01.425Z,7.55
2022-10-14T22:01:31.017Z,10.52
2022-10-14T22:04:01.555Z,5.15
2022-10-14T22:06:30.090Z,8.15
2022-10-14T22:09:00.884Z,7.45
2022-10-14T22:11:32.431Z,8.85
2022-10-14T22:14:02.697Z,5.40
2022-10-14T22:16:31.760Z,7.07
2022-10-14T22:19:01.688Z,7.05
2022-10-14T22:21:32.025Z,7.85
2022-10-14T22:24:00.760Z,5.12
2022-10-14T22:26:31.665Z,7.18
2022-10-14T22:29:01.897Z,5.68
2022-10-14T22:31:33.084Z,5.87
2022-10-14T22:34:02.829Z,8.07
2022-10-14T22:36:32.237Z,5.35
2022-10-14T22:39:02.378Z,6.97
2022-10-14T22:41:35.472Z,7.93
2022-10-14T22:44:05.173Z,5.22
2022-10-14T22:46:36.326Z,6.57
2022-10-14T22:49:05.449Z,7.47
2022-10-14T22:51:36.180Z,5.07
2022-10-14T22:54:04.766Z,6.20
2022-10-14T22:56:34.460Z,9.43
2022-10-14T22:59:04.690Z,6.82
2022-10-14T23:01:33.582Z,7.35
2022-10-14T23:04:02.602Z,6.55
2022-10-14T23:06:32.313Z,4.70
2022-10-14T23:09:01.423Z,5.57
2022-10-14T23:11:31.508Z,8.80
2022-10-14T23:14:04.577Z,4.55
2022-10-14T23:16:36.546Z,5.05
2022-10-14T23:19:04.966Z,4.75
2022-10-14T23:21:34.986Z,6.15
2022-10-14T23:24:05.858Z,7.40
2022-10-14T23:26:35.536Z,3.90
2022-10-14T23:29:07.295Z,4.22
2022-10-14T23:31:37.452Z,4.75
2022-10-14T23:34:06.936Z,7.75
2022-10-14T23:36:35.419Z,5.40
2022-10-14T23:39:03.824Z,5.53
2022-10-14T23:41:31.977Z,3.65
2022-10-14T23:44:00.458Z,4.75
2022-10-14T23:46:29.973Z,4.22
2022-10-14T23:49:07.780Z,4.05
2022-10-14T23:51:46.599Z,5.10
2022-10-14T23:54:14.775Z,5.95
2022-10-14T23:56:42.868Z,4.60
2022-10-14T23:59:11.543Z,3.70
